Time;durP1;ratioP1;P1;durP2;ratioP2;P2;SDS_P1;SDS_P2;PMS_P1;PMS_P2;Temp;Humidity;BMP_temperature;BMP_pressure;BME280_temperature;BME280_humidity;BME280_pressure;Samples;Min_cycle;Max_cycle;Signal;HPM_P1;HPM_P2
2023/10/17 00:01:11;;;;;;;13.27;12.77;;;9.50;99.90;;;;;;5006992;28;20344;-64
2023/10/17 00:03:37;;;;;;;13.27;12.77;;;9.50;99.90;;;;;;5006587;28;20235;-64
2023/10/17 00:06:06;;;;;;;13.40;12.90;;;9.40;99.90;;;;;;5007743;28;20613;-65
2023/10/17 00:08:33;;;;;;;13.40;12.90;;;9.40;99.90;;;;;;5005880;28;20407;-65
2023/10/17 00:11:07;;;;;;;13.57;13.07;;;9.40;99.90;;;;;;5005692;28;20667;-65
2023/10/17 00:13:39;;;;;;;13.70;13.20;;;9.40;99.90;;;;;;5005868;28;20287;-66
2023/10/17 00:16:11;;;;;;;14.02;13.52;;;9.40;99.90;;;;;;5003432;28;20205;-65
2023/10/17 00:18:38;;;;;;;13.70;13.20;;;9.40;99.90;;;;;;5004501;28;20251;-67
2023/10/17 00:21:12;;;;;;;13.80;13.30;;;9.30;99.90;;;;;;5008435;28;20205;-66
2023/10/17 00:23:40;;;;;;;13.95;13.45;;;9.30;99.90;;;;;;5006431;28;20263;-65
2023/10/17 00:26:08;;;;;;;13.63;13.13;;;9.30;99.90;;;;;;5007357;28;20205;-66
2023/10/17 00:28:36;;;;;;;14.02;13.43;;;9.20;99.90;;;;;;5024722;28;20299;-67
2023/10/17 00:31:04;;;;;;;13.33;12.83;;;9.20;99.90;;;;;;5004294;28;20284;-67
2023/10/17 00:33:32;;;;;;;13.65;13.15;;;9.20;99.90;;;;;;5009170;28;20534;-65
2023/10/17 00:36:03;;;;;;;13.90;13.40;;;9.10;99.90;;;;;;5006686;28;20206;-66
2023/10/17 00:38:35;;;;;;;14.10;13.60;;;9.10;99.90;;;;;;5006296;28;20855;-66
2023/10/17 00:41:03;;;;;;;13.77;13.27;;;9.10;99.90;;;;;;5007485;28;20234;-65
2023/10/17 00:43:31;;;;;;;13.65;13.15;;;9.00;99.90;;;;;;5006941;28;20634;-65
2023/10/17 00:45:58;;;;;;;13.33;12.83;;;9.00;99.90;;;;;;5005657;28;20206;-65
2023/10/17 00:48:26;;;;;;;13.70;13.20;;;9.00;99.90;;;;;;5004237;28;20229;-64
2023/10/17 00:50:57;;;;;;;14.55;14.05;;;8.90;99.90;;;;;;5005921;28;20209;-65
2023/10/17 00:53:26;;;;;;;13.88;13.38;;;8.80;99.90;;;;;;5009617;28;20206;-67
2023/10/17 00:55:56;;;;;;;13.30;12.80;;;8.70;99.90;;;;;;5017574;28;20210;-68
2023/10/17 00:58:24;;;;;;;13.33;12.83;;;8.70;99.90;;;;;;5011825;28;20307;-65
2023/10/17 01:00:58;;;;;;;13.13;12.63;;;8.60;99.90;;;;;;5012479;28;20213;-66
2023/10/17 01:03:28;;;;;;;13.68;13.18;;;8.60;99.90;;;;;;5011408;28;20230;-66
2023/10/17 01:06:13;;;;;;;12.93;12.43;;;8.60;99.90;;;;;;5012192;28;20209;-67
2023/10/17 01:08:44;;;;;;;13.20;12.60;;;8.70;99.90;;;;;;5011224;28;20606;-66
2023/10/17 01:11:15;;;;;;;13.48;12.98;;;8.70;99.90;;;;;;5010922;28;20641;-65
2023/10/17 01:13:42;;;;;;;12.90;12.40;;;8.70;99.90;;;;;;5011178;28;20228;-65
2023/10/17 01:16:10;;;;;;;13.83;13.23;;;8.50;99.90;;;;;;5009333;28;20202;-65
2023/10/17 01:18:37;;;;;;;13.23;12.73;;;8.60;99.90;;;;;;5009063;28;20283;-65
2023/10/17 01:21:04;;;;;;;13.20;12.70;;;8.60;99.90;;;;;;5011199;28;20213;-65
2023/10/17 01:23:31;;;;;;;13.73;13.23;;;8.60;99.90;;;;;;5011608;28;20228;-67
2023/10/17 01:26:01;;;;;;;13.03;12.53;;;8.60;99.90;;;;;;5011306;28;20591;-64
2023/10/17 01:28:28;;;;;;;13.40;12.90;;;8.70;99.90;;;;;;5015886;28;20233;-64
2023/10/17 01:31:01;;;;;;;13.33;12.83;;;8.70;99.90;;;;;;5009675;28;20679;-65
2023/10/17 01:33:29;;;;;;;13.02;12.52;;;8.70;99.90;;;;;;5016175;28;20292;-67
2023/10/17 01:35:58;;;;;;;13.43;12.93;;;8.70;99.90;;;;;;5014551;28;20675;-67
2023/10/17 01:38:26;;;;;;;13.70;13.20;;;8.70;99.90;;;;;;5016915;28;20264;-66
2023/10/17 01:40:53;;;;;;;13.27;12.77;;;8.70;99.90;;;;;;5014331;28;20638;-67
2023/10/17 01:43:21;;;;;;;13.43;12.93;;;8.80;99.90;;;;;;5014307;28;20275;-65
2023/10/17 01:45:48;;;;;;;14.05;13.55;;;8.80;99.90;;;;;;5014269;28;20205;-67
2023/10/17 01:48:15;;;;;;;12.52;12.10;;;8.80;99.90;;;;;;5014097;28;20245;-64
2023/10/17 01:50:44;;;;;;;13.13;12.63;;;8.80;99.90;;;;;;5014047;28;20205;-67
2023/10/17 01:53:12;;;;;;;12.57;12.07;;;8.80;99.90;;;;;;5013467;28;20205;-67
2023/10/17 01:55:41;;;;;;;13.05;12.57;;;8.80;99.90;;;;;;5014204;28;20205;-65
2023/10/17 01:58:10;;;;;;;12.88;12.38;;;8.80;99.90;;;;;;5013775;28;20225;-65
2023/10/17 02:00:43;;;;;;;13.13;12.63;;;8.80;99.90;;;;;;5013745;28;20205;-65
2023/10/17 02:03:12;;;;;;;13.50;13.00;;;8.80;99.90;;;;;;5013870;28;20221;-64
2023/10/17 02:05:39;;;;;;;13.13;12.63;;;8.80;99.90;;;;;;5016231;28;20210;-66
2023/10/17 02:08:07;;;;;;;13.13;12.63;;;8.70;99.90;;;;;;5013794;28;20252;-65
2023/10/17 02:10:34;;;;;;;13.20;12.70;;;8.70;99.90;;;;;;5013423;28;20213;-66
2023/10/17 02:13:04;;;;;;;13.45;12.95;;;8.70;99.90;;;;;;5014225;28;20227;-66
2023/10/17 02:15:30;;;;;;;12.90;12.40;;;8.60;99.90;;;;;;5013918;28;20259;-66
2023/10/17 02:18:02;;;;;;;12.80;12.33;;;8.60;99.90;;;;;;5013333;28;20672;-67
2023/10/17 02:20:30;;;;;;;13.07;12.60;;;8.60;99.90;;;;;;5013431;28;20785;-66
2023/10/17 02:22:59;;;;;;;13.25;12.75;;;8.50;99.90;;;;;;5013496;28;20620;-66
2023/10/17 02:25:32;;;;;;;12.60;12.20;;;8.50;99.90;;;;;;5016035;28;20205;-67
2023/10/17 02:27:59;;;;;;;12.70;12.23;;;8.60;99.90;;;;;;5016188;28;20249;-66
2023/10/17 02:30:26;;;;;;;13.10;12.60;;;8.60;99.90;;;;;;5013302;28;20260;-65
2023/10/17 02:32:53;;;;;;;13.25;12.75;;;8.60;99.90;;;;;;5018524;28;20201;-67
2023/10/17 02:35:28;;;;;;;13.10;12.60;;;8.60;99.90;;;;;;5013182;28;20209;-64
2023/10/17 02:37:57;;;;;;;12.83;12.37;;;8.50;99.90;;;;;;5013181;28;20236;-67
2023/10/17 02:40:25;;;;;;;14.03;13.00;;;8.50;99.90;;;;;;5015487;28;20293;-65
2023/10/17 02:42:51;;;;;;;13.15;12.65;;;8.50;99.90;;;;;;5012753;28;20251;-68
2023/10/17 02:45:24;;;;;;;13.25;12.75;;;8.50;99.90;;;;;;5017353;28;20205;-64
2023/10/17 02:47:53;;;;;;;13.80;13.30;;;8.50;99.90;;;;;;5012629;28;20232;-66
2023/10/17 02:50:41;;;;;;;12.90;12.43;;;8.60;99.90;;;;;;5012631;28;20804;-65
2023/10/17 02:53:11;;;;;;;13.20;12.70;;;8.60;99.90;;;;;;5013159;28;20220;-67
2023/10/17 02:55:38;;;;;;;13.15;12.68;;;8.60;99.90;;;;;;5015606;28;20275;-64
2023/10/17 02:58:05;;;;;;;13.13;12.63;;;8.60;99.90;;;;;;5014822;28;20605;-66
2023/10/17 03:00:34;;;;;;;13.48;12.98;;;8.70;99.90;;;;;;5018821;28;20220;-67
2023/10/17 03:03:11;;;;;;;13.60;13.10;;;8.70;99.90;;;;;;5023561;28;20724;-67
2023/10/17 03:05:41;;;;;;;13.43;12.93;;;8.60;99.90;;;;;;5017734;28;20227;-67
2023/10/17 03:08:11;;;;;;;12.73;12.23;;;8.30;99.90;;;;;;5009301;28;20229;-65
2023/10/17 03:10:39;;;;;;;13.13;12.63;;;8.20;99.90;;;;;;5012664;28;20324;-68
2023/10/17 03:13:14;;;;;;;12.77;12.30;;;8.00;99.90;;;;;;5015649;28;20280;-66
2023/10/17 03:15:46;;;;;;;13.18;12.68;;;8.00;99.90;;;;;;5019208;28;20219;-65
2023/10/17 03:18:16;;;;;;;13.07;12.57;;;8.00;99.90;;;;;;5012551;28;20221;-66
2023/10/17 03:20:50;;;;;;;12.63;12.15;;;7.90;99.90;;;;;;5009036;28;20814;-67
2023/10/17 03:23:17;;;;;;;12.63;12.23;;;7.90;99.90;;;;;;5017335;28;20270;-66
2023/10/17 03:25:46;;;;;;;12.60;12.15;;;7.90;99.90;;;;;;5014326;28;20221;-66
2023/10/17 03:28:15;;;;;;;13.33;12.83;;;7.80;99.90;;;;;;5011857;28;20221;-68
2023/10/17 03:30:42;;;;;;;12.75;12.32;;;7.70;99.90;;;;;;5011896;28;20209;-66
2023/10/17 03:33:13;;;;;;;13.07;12.57;;;7.70;99.90;;;;;;5011966;28;20197;-66
2023/10/17 03:35:56;;;;;;;13.30;12.80;;;7.70;99.90;;;;;;5011774;28;20584;-64
2023/10/17 03:38:27;;;;;;;12.70;12.20;;;7.70;99.90;;;;;;5008907;28;20761;-66
2023/10/17 03:40:54;;;;;;;12.90;12.40;;;7.60;99.90;;;;;;5011533;28;20213;-65
2023/10/17 03:43:22;;;;;;;12.43;11.93;;;7.70;99.90;;;;;;5011641;28;20221;-66
2023/10/17 03:45:58;;;;;;;12.57;12.18;;;7.70;99.90;;;;;;5011626;28;20209;-68
2023/10/17 03:48:28;;;;;;;13.27;12.77;;;7.60;99.90;;;;;;5016625;28;20228;-66
2023/10/17 03:51:10;;;;;;;13.30;12.80;;;7.50;99.90;;;;;;5014755;28;20213;-65
2023/10/17 03:53:44;;;;;;;13.40;12.90;;;7.40;99.90;;;;;;5011709;28;20217;-67
2023/10/17 03:56:19;;;;;;;12.60;12.10;;;7.30;99.90;;;;;;5010954;28;20270;-65
2023/10/17 03:58:53;;;;;;;12.80;12.30;;;7.20;99.90;;;;;;5009074;28;20247;-64
2023/10/17 04:01:23;;;;;;;12.98;12.48;;;7.20;99.90;;;;;;5016651;28;20204;-64
2023/10/17 04:03:53;;;;;;;13.60;13.10;;;7.20;99.90;;;;;;5012583;28;20225;-67
2023/10/17 04:06:23;;;;;;;12.95;12.45;;;7.20;99.90;;;;;;5012350;28;20212;-64
2023/10/17 04:08:56;;;;;;;13.33;12.83;;;7.30;99.90;;;;;;5016051;28;20224;-64
2023/10/17 04:11:27;;;;;;;13.18;12.68;;;7.40;99.90;;;;;;5011039;28;20240;-64
2023/10/17 04:13:55;;;;;;;13.00;12.50;;;7.40;99.90;;;;;;5011370;28;20672;-65
2023/10/17 04:16:27;;;;;;;13.30;12.80;;;7.30;99.90;;;;;;5011777;28;20244;-65
2023/10/17 04:18:57;;;;;;;12.85;12.35;;;7.50;99.90;;;;;;5011344;28;20233;-64
2023/10/17 04:21:31;;;;;;;13.00;12.50;;;7.60;99.90;;;;;;5010888;28;20672;-65
2023/10/17 04:24:01;;;;;;;13.13;12.63;;;7.60;99.90;;;;;;5010957;28;20235;-65
2023/10/17 04:26:34;;;;;;;13.50;13.00;;;7.60;99.90;;;;;;5011393;28;20213;-65
2023/10/17 04:29:11;;;;;;;13.18;12.68;;;7.60;99.90;;;;;;5013346;28;20269;-64
2023/10/17 04:31:38;;;;;;;13.33;12.83;;;7.50;99.90;;;;;;5015870;28;20223;-64
2023/10/17 04:34:06;;;;;;;12.95;12.45;;;7.60;99.90;;;;;;5014647;28;20212;-64
2023/10/17 04:36:37;;;;;;;13.18;12.68;;;7.60;99.90;;;;;;5011648;28;20205;-65
2023/10/17 04:39:18;;;;;;;12.77;12.27;;;7.70;99.90;;;;;;5010769;28;21007;-65
2023/10/17 04:44:32;;;;;;;13.43;12.93;;;7.60;99.90;;;;;;5009959;28;20287;-67
2023/10/17 04:47:22;;;;;;;12.80;12.37;;;7.50;99.90;;;;;;5011186;28;20205;-64
2023/10/17 04:49:50;;;;;;;13.57;13.07;;;7.50;99.90;;;;;;5007543;28;20252;-65
2023/10/17 04:52:19;;;;;;;13.27;12.77;;;7.50;99.90;;;;;;5011208;28;20213;-65
2023/10/17 04:54:47;;;;;;;12.53;12.13;;;7.40;99.90;;;;;;5011035;28;20587;-67
2023/10/17 04:57:16;;;;;;;13.20;12.70;;;7.40;99.90;;;;;;5011166;28;20671;-64
2023/10/17 04:59:55;;;;;;;13.13;12.63;;;7.40;99.90;;;;;;5011751;28;20221;-66
2023/10/17 05:02:38;;;;;;;12.93;12.43;;;7.40;99.90;;;;;;5012040;28;20279;-64
2023/10/17 06:16:52;;;;;;;14.20;13.70;;;6.40;99.90;;;;;;5010848;28;20215;-67
2023/10/17 06:19:24;;;;;;;14.40;13.80;;;6.50;99.90;;;;;;5012682;28;20260;-68
2023/10/17 06:24:56;;;;;;;13.83;13.33;;;6.60;99.90;;;;;;5017459;28;20790;-66
2023/10/17 06:33:17;;;;;;;15.50;14.90;;;6.60;99.90;;;;;;5021163;28;20670;-66
2023/10/17 06:35:44;;;;;;;13.33;12.83;;;6.40;99.90;;;;;;5009767;28;20259;-68
2023/10/17 06:38:15;;;;;;;14.55;13.95;;;6.30;99.90;;;;;;5015864;28;20773;-68
2023/10/17 06:40:45;;;;;;;13.65;13.15;;;6.30;99.90;;;;;;5017877;28;20209;-67
2023/10/17 06:43:15;;;;;;;13.83;13.33;;;6.40;99.90;;;;;;5014815;28;20225;-66
2023/10/17 06:45:52;;;;;;;13.32;12.82;;;6.40;99.90;;;;;;5018893;28;20201;-67
2023/10/17 06:48:31;;;;;;;13.37;12.87;;;6.40;99.90;;;;;;5019530;28;20216;-67
2023/10/17 06:53:47;;;;;;;14.07;13.57;;;6.50;99.90;;;;;;5030295;28;20264;-68
2023/10/17 06:56:13;;;;;;;13.57;13.07;;;6.50;99.90;;;;;;5033663;28;20219;-67
2023/10/17 06:58:40;;;;;;;13.65;13.15;;;6.60;99.90;;;;;;5028717;28;20239;-67
2023/10/17 07:01:19;;;;;;;14.60;14.10;;;6.70;99.90;;;;;;5026130;28;20213;-67
2023/10/17 07:03:47;;;;;;;14.03;13.53;;;6.70;99.90;;;;;;5033338;28;20247;-66
2023/10/17 07:06:14;;;;;;;13.83;13.23;;;6.80;99.90;;;;;;5032860;28;20201;-67
2023/10/17 07:08:41;;;;;;;13.63;13.13;;;6.90;99.90;;;;;;5039960;28;20239;-65
2023/10/17 07:11:24;;;;;;;13.63;13.13;;;6.90;99.90;;;;;;5035698;28;20220;-67
2023/10/17 07:13:59;;;;;;;14.10;13.60;;;7.00;99.90;;;;;;5034298;28;20217;-68
2023/10/17 07:16:27;;;;;;;14.07;13.57;;;7.10;99.90;;;;;;5031893;28;20280;-66
2023/10/17 07:18:57;;;;;;;13.63;13.00;;;7.10;99.90;;;;;;5030227;28;20240;-66
2023/10/17 07:21:23;;;;;;;13.27;12.77;;;7.20;99.90;;;;;;5019156;28;20219;-67
2023/10/17 07:23:54;;;;;;;13.97;13.47;;;7.40;99.90;;;;;;5014904;28;20328;-65
2023/10/17 07:26:39;;;;;;;12.40;12.00;;;7.60;99.90;;;;;;5015564;28;20205;-67
2023/10/17 07:29:06;;;;;;;13.27;12.77;;;7.80;99.90;;;;;;5019122;28;20296;-69
2023/10/17 07:31:33;;;;;;;13.30;12.80;;;8.00;99.90;;;;;;5022742;28;20262;-68
2023/10/17 07:36:58;;;;;;;12.93;12.43;;;8.10;99.90;;;;;;5000498;28;20332;-67
2023/10/17 07:39:29;;;;;;;12.93;12.43;;;8.30;99.90;;;;;;5023814;28;20757;-66
2023/10/17 07:41:57;;;;;;;13.07;12.57;;;8.40;99.90;;;;;;5024395;28;20213;-66
2023/10/17 07:44:26;;;;;;;13.63;13.13;;;8.50;99.90;;;;;;5023342;28;20225;-66
2023/10/17 07:47:08;;;;;;;13.43;12.93;;;8.60;99.90;;;;;;5023297;28;20213;-68
2023/10/17 07:49:37;;;;;;;13.10;12.60;;;8.50;99.90;;;;;;5016552;28;20257;-66
2023/10/17 07:52:10;;;;;;;14.03;13.53;;;8.60;99.90;;;;;;5013958;28;20216;-67
2023/10/17 07:54:45;;;;;;;14.03;13.53;;;8.70;99.90;;;;;;5018728;28;20695;-66
2023/10/17 07:57:17;;;;;;;13.20;12.70;;;8.80;99.90;;;;;;5013913;28;20228;-67
2023/10/17 07:59:48;;;;;;;14.43;13.93;;;8.90;99.90;;;;;;5008447;28;20316;-67
2023/10/17 08:02:19;;;;;;;14.65;14.15;;;8.90;99.90;;;;;;5013556;28;20239;-69
2023/10/17 08:04:48;;;;;;;14.00;13.50;;;8.90;99.90;;;;;;5005922;28;20317;-67
2023/10/17 08:07:15;;;;;;;14.27;13.77;;;9.00;99.90;;;;;;5013627;28;20209;-66
2023/10/17 08:09:50;;;;;;;15.43;14.83;;;8.90;99.90;;;;;;5012780;28;20763;-67
2023/10/17 08:12:21;;;;;;;13.88;13.38;;;9.10;99.90;;;;;;5013025;28;20221;-64
2023/10/17 08:14:57;;;;;;;13.90;13.40;;;9.20;99.90;;;;;;5009035;28;20237;-67
2023/10/17 08:17:34;;;;;;;14.90;14.40;;;9.30;99.90;;;;;;5010941;28;20291;-67
2023/10/17 08:20:33;;;;;;;14.60;14.00;;;9.60;99.90;;;;;;5017959;28;20213;-67
2023/10/17 08:22:55;;;;;;;13.90;13.40;;;9.70;99.90;;;;;;5010448;28;20209;-67
2023/10/17 08:25:30;;;;;;;14.50;13.97;;;9.70;99.90;;;;;;5011014;28;20229;-66
2023/10/17 08:27:56;;;;;;;14.30;13.80;;;9.70;99.90;;;;;;5021240;28;20232;-67
2023/10/17 08:30:26;;;;;;;13.88;13.38;;;9.70;99.90;;;;;;5020251;28;20217;-67
2023/10/17 08:32:57;;;;;;;14.00;13.50;;;9.60;99.90;;;;;;5012601;28;20213;-66
2023/10/17 08:35:36;;;;;;;13.63;13.13;;;9.50;99.90;;;;;;5010199;28;20209;-66
2023/10/17 08:38:03;;;;;;;13.80;13.30;;;9.70;99.90;;;;;;5012779;28;20245;-66
2023/10/17 08:40:32;;;;;;;13.20;12.60;;;9.90;99.90;;;;;;5018095;28;20209;-67
2023/10/17 08:43:00;;;;;;;13.10;12.60;;;9.80;99.90;;;;;;5013032;28;20248;-67
2023/10/17 08:45:27;;;;;;;13.00;12.50;;;10.00;99.90;;;;;;5015065;28;20484;-67
2023/10/17 08:47:59;;;;;;;12.93;12.43;;;10.00;99.90;;;;;;5016721;28;20233;-67
2023/10/17 08:50:28;;;;;;;13.32;12.82;;;10.40;99.90;;;;;;5020578;28;20209;-66
2023/10/17 08:52:59;;;;;;;13.17;12.67;;;10.80;99.90;;;;;;5006075;28;20201;-68
2023/10/17 08:55:27;;;;;;;13.20;12.70;;;10.90;99.90;;;;;;5009729;28;20205;-66
2023/10/17 08:57:54;;;;;;;13.82;13.32;;;10.90;99.90;;;;;;5015761;28;20275;-66
2023/10/17 09:00:48;;;;;;;14.85;14.35;;;11.10;99.90;;;;;;5011413;28;20228;-66
2023/10/17 09:03:25;;;;;;;14.80;14.30;;;11.30;99.90;;;;;;5015577;28;20209;-66
2023/10/17 09:06:07;;;;;;;14.00;13.50;;;11.50;99.90;;;;;;5015152;28;20354;-66
2023/10/17 09:11:31;;;;;;;13.43;12.93;;;11.80;99.90;;;;;;4997569;28;20698;-66
2023/10/17 09:14:16;;;;;;;13.70;13.20;;;11.90;99.90;;;;;;5013255;28;20686;-66
2023/10/17 09:16:50;;;;;;;14.13;13.63;;;11.90;99.90;;;;;;5019407;28;20683;-67
2023/10/17 09:19:20;;;;;;;13.77;13.27;;;11.90;99.90;;;;;;5012832;28;20738;-67
2023/10/17 09:21:49;;;;;;;13.70;13.20;;;12.10;99.90;;;;;;5012349;28;20212;-68
2023/10/17 09:24:32;;;;;;;13.90;13.40;;;12.00;99.90;;;;;;5014256;28;20233;-67
2023/10/17 09:26:59;;;;;;;14.10;13.60;;;11.90;99.90;;;;;;5020720;28;20287;-65
2023/10/17 09:29:27;;;;;;;13.27;12.77;;;11.90;99.90;;;;;;5013149;28;20233;-68
2023/10/17 09:31:55;;;;;;;14.15;13.65;;;11.80;99.90;;;;;;5029473;28;20219;-68
2023/10/17 09:34:26;;;;;;;14.40;13.90;;;11.70;99.90;;;;;;5005667;28;20231;-69
2023/10/17 09:37:04;;;;;;;14.10;13.60;;;11.80;99.90;;;;;;5002012;28;20228;-67
2023/10/17 09:39:33;;;;;;;14.20;13.70;;;12.00;99.90;;;;;;5007310;28;20236;-66
2023/10/17 09:41:59;;;;;;;13.80;13.30;;;12.00;99.90;;;;;;5001323;28;20576;-64
2023/10/17 09:44:26;;;;;;;14.35;13.85;;;12.10;99.90;;;;;;5003486;28;20232;-67
2023/10/17 09:46:57;;;;;;;14.13;13.63;;;12.20;99.90;;;;;;5012283;28;20212;-66
2023/10/17 09:49:35;;;;;;;13.80;13.30;;;12.20;99.90;;;;;;5011955;28;20228;-68
2023/10/17 09:52:09;;;;;;;12.97;12.50;;;12.10;99.90;;;;;;5021143;28;20590;-67
2023/10/17 09:54:40;;;;;;;14.27;13.77;;;12.00;99.90;;;;;;5014819;28;20213;-66
2023/10/17 09:57:12;;;;;;;14.35;13.85;;;12.00;99.90;;;;;;5015530;28;20588;-68
2023/10/17 09:59:44;;;;;;;14.30;13.80;;;12.10;99.90;;;;;;5021003;28;20320;-66
2023/10/17 10:02:13;;;;;;;13.47;12.97;;;12.30;99.90;;;;;;5015451;28;20209;-68
2023/10/17 10:04:39;;;;;;;13.15;12.68;;;12.40;99.90;;;;;;5018284;28;20232;-67
2023/10/17 10:07:26;;;;;;;13.20;12.70;;;12.50;99.90;;;;;;5026508;28;20220;-66
2023/10/17 10:09:53;;;;;;;13.50;13.00;;;12.60;99.90;;;;;;5015570;28;20221;-67
2023/10/17 10:12:20;;;;;;;14.02;13.52;;;12.50;99.90;;;;;;5015839;28;20206;-65
2023/10/17 10:14:49;;;;;;;14.32;13.82;;;12.40;99.90;;;;;;5015447;28;20572;-67
2023/10/17 10:17:17;;;;;;;14.07;13.57;;;12.30;99.90;;;;;;5011071;28;20670;-65
2023/10/17 10:20:00;;;;;;;14.30;13.80;;;12.20;99.90;;;;;;5004877;28;20286;-67
2023/10/17 10:22:49;;;;;;;13.85;13.35;;;12.30;99.90;;;;;;5008587;28;20205;-67
2023/10/17 10:25:17;;;;;;;13.73;13.23;;;12.30;99.90;;;;;;5002171;28;20308;-67
2023/10/17 10:27:46;;;;;;;14.67;14.07;;;12.40;99.90;;;;;;5003090;28;20202;-66
2023/10/17 10:30:38;;;;;;;13.90;13.40;;;12.40;99.90;;;;;;5008258;28;20202;-68
2023/10/17 10:33:05;;;;;;;13.52;13.02;;;12.40;99.90;;;;;;5011415;28;20664;-68
2023/10/17 10:35:33;;;;;;;14.30;13.70;;;12.40;99.90;;;;;;5016000;28;20247;-66
2023/10/17 10:37:59;;;;;;;14.77;14.27;;;12.50;99.90;;;;;;5017793;28;20575;-66
2023/10/17 10:40:32;;;;;;;15.17;14.67;;;12.50;99.90;;;;;;5014191;28;20288;-69
2023/10/17 10:43:01;;;;;;;16.17;15.60;;;12.60;99.90;;;;;;5014212;28;20577;-68
2023/10/17 10:45:42;;;;;;;15.98;15.27;;;12.60;99.90;;;;;;5014629;28;20239;-68
2023/10/17 10:48:14;;;;;;;15.90;15.30;;;12.50;99.90;;;;;;5014590;28;20268;-68
2023/10/17 10:50:42;;;;;;;15.57;14.98;;;12.50;99.90;;;;;;5014463;28;20668;-67
2023/10/17 10:53:20;;;;;;;14.93;14.43;;;12.50;99.90;;;;;;5020588;28;20671;-67
2023/10/17 10:55:56;;;;;;;16.25;15.65;;;12.60;99.90;;;;;;5012664;28;20211;-67
2023/10/17 10:58:24;;;;;;;16.20;15.60;;;12.80;99.90;;;;;;5021160;28;20626;-67
2023/10/17 11:00:51;;;;;;;17.02;16.42;;;12.90;99.90;;;;;;5013939;28;20205;-68
2023/10/17 11:03:19;;;;;;;16.75;16.15;;;13.00;99.90;;;;;;5013680;28;20197;-64
2023/10/17 11:05:53;;;;;;;16.30;15.70;;;13.20;99.90;;;;;;5013322;28;20221;-66
2023/10/17 11:08:20;;;;;;;15.80;15.27;;;13.00;99.90;;;;;;5005695;28;20221;-65
2023/10/17 11:10:47;;;;;;;16.50;15.88;;;12.90;99.90;;;;;;5008471;28;20216;-67
2023/10/17 11:13:16;;;;;;;16.55;15.95;;;12.80;99.90;;;;;;5009815;28;20202;-67
2023/10/17 11:15:44;;;;;;;16.10;15.50;;;12.80;99.90;;;;;;5006056;28;20201;-67
2023/10/17 11:18:11;;;;;;;15.85;15.25;;;13.00;99.90;;;;;;5009897;28;20237;-67
2023/10/17 11:20:40;;;;;;;15.73;15.23;;;13.00;99.90;;;;;;5005700;28;20205;-65
2023/10/17 11:23:11;;;;;;;15.20;14.70;;;13.10;99.90;;;;;;5013880;28;20211;-66
2023/10/17 11:25:40;;;;;;;16.10;15.50;;;13.10;99.90;;;;;;5020055;28;20263;-64
2023/10/17 11:28:07;;;;;;;15.30;14.70;;;13.10;99.90;;;;;;5013646;28;20233;-64
2023/10/17 11:30:40;;;;;;;15.10;14.60;;;13.10;99.90;;;;;;5020486;28;20201;-65
2023/10/17 11:33:10;;;;;;;15.65;15.07;;;13.30;99.90;;;;;;5022986;28;20231;-67
2023/10/17 11:35:37;;;;;;;15.33;14.70;;;13.20;99.90;;;;;;5015120;28;20197;-65
2023/10/17 11:38:07;;;;;;;14.63;14.13;;;13.20;99.90;;;;;;5000285;28;20615;-65
2023/10/17 11:40:44;;;;;;;15.63;15.13;;;13.20;99.90;;;;;;5000724;28;20209;-65
2023/10/17 11:43:16;;;;;;;14.97;14.47;;;13.20;99.90;;;;;;5002109;28;20205;-68
2023/10/17 11:45:45;;;;;;;14.57;14.07;;;13.20;99.90;;;;;;5002585;28;20295;-67
2023/10/17 11:48:29;;;;;;;15.10;14.50;;;13.30;99.90;;;;;;5003278;28;20221;-66
2023/10/17 11:51:06;;;;;;;14.67;14.17;;;13.40;99.90;;;;;;5001212;28;20233;-65
2023/10/17 11:53:33;;;;;;;14.88;14.38;;;13.30;99.90;;;;;;5010687;28;20197;-66
2023/10/17 11:56:01;;;;;;;14.50;14.00;;;13.30;99.90;;;;;;5008687;28;20202;-67
2023/10/17 11:58:29;;;;;;;14.35;13.82;;;13.40;99.90;;;;;;5017137;28;20316;-68
2023/10/17 12:00:57;;;;;;;14.05;13.55;;;13.40;99.90;;;;;;5023968;28;20260;-67
2023/10/17 12:03:26;;;;;;;14.40;13.90;;;13.40;99.90;;;;;;5013114;28;20208;-67
2023/10/17 12:05:53;;;;;;;14.52;13.95;;;13.40;99.90;;;;;;5012741;28;20602;-68
2023/10/17 12:08:23;;;;;;;14.55;14.05;;;13.50;99.90;;;;;;5013777;28;20715;-67
2023/10/17 12:10:51;;;;;;;14.48;13.98;;;13.50;99.90;;;;;;5018255;28;20221;-69
2023/10/17 12:13:18;;;;;;;14.27;13.77;;;13.50;99.90;;;;;;5003006;28;20206;-61
2023/10/17 12:15:45;;;;;;;17.73;17.02;;;13.40;99.90;;;;;;5005080;28;20221;-63
2023/10/17 12:18:13;;;;;;;14.30;13.80;;;13.50;99.90;;;;;;5007580;28;20731;-62
2023/10/17 12:20:41;;;;;;;13.37;12.87;;;13.80;99.90;;;;;;5004206;28;20223;-64
2023/10/17 12:23:11;;;;;;;12.97;12.47;;;14.30;99.90;;;;;;4998943;28;20229;-61
2023/10/17 12:25:41;;;;;;;13.00;12.60;;;14.70;99.90;;;;;;4999013;28;20231;-61
2023/10/17 12:28:08;;;;;;;12.63;12.23;;;14.70;99.90;;;;;;4998353;28;20275;-61
2023/10/17 12:30:36;;;;;;;13.05;12.55;;;15.00;99.90;;;;;;4998188;28;20201;-63
2023/10/17 12:33:04;;;;;;;15.02;14.27;;;15.20;99.90;;;;;;4997459;28;20225;-65
2023/10/17 12:35:33;;;;;;;18.63;17.73;;;15.30;99.90;;;;;;5004550;28;20619;-63
2023/10/17 12:38:06;;;;;;;14.93;14.32;;;15.60;99.90;;;;;;5011507;28;20239;-63
2023/10/17 12:40:33;;;;;;;13.30;12.80;;;16.00;99.90;;;;;;5011628;28;20224;-63
2023/10/17 12:43:01;;;;;;;13.80;13.30;;;15.90;99.90;;;;;;5011918;28;20579;-61
2023/10/17 12:45:30;;;;;;;14.70;14.20;;;15.60;99.90;;;;;;5011329;28;20665;-63
2023/10/17 12:47:56;;;;;;;13.83;13.33;;;15.50;99.90;;;;;;5011371;28;20225;-63
2023/10/17 12:50:23;;;;;;;14.65;14.15;;;15.50;99.90;;;;;;5010813;28;20640;-63
2023/10/17 12:52:53;;;;;;;15.68;15.07;;;15.70;99.90;;;;;;5011216;28;20611;-63
2023/10/17 12:55:20;;;;;;;14.98;14.40;;;15.70;99.90;;;;;;5005809;28;20286;-63
2023/10/17 12:57:46;;;;;;;14.52;14.02;;;15.60;99.90;;;;;;5011151;28;20283;-64
2023/10/17 13:00:15;;;;;;;14.00;13.50;;;15.60;99.90;;;;;;5010508;28;20271;-64
2023/10/17 13:02:42;;;;;;;13.77;13.27;;;15.50;99.90;;;;;;5011379;28;20202;-63
2023/10/17 13:05:10;;;;;;;13.70;13.20;;;15.40;99.90;;;;;;5011692;28;20232;-64
2023/10/17 13:07:37;;;;;;;14.20;13.70;;;15.30;99.90;;;;;;5010846;28;20812;-63
2023/10/17 13:10:07;;;;;;;13.75;13.25;;;15.30;99.90;;;;;;5018290;28;20676;-63
2023/10/17 13:12:33;;;;;;;14.52;14.02;;;15.20;99.90;;;;;;5012199;28;20292;-64
2023/10/17 13:15:00;;;;;;;13.50;13.00;;;15.10;99.90;;;;;;5011552;28;20193;-64
2023/10/17 13:17:28;;;;;;;14.63;14.13;;;15.30;99.90;;;;;;5008174;28;20212;-63
2023/10/17 13:19:57;;;;;;;14.65;14.15;;;15.30;99.90;;;;;;5001352;28;20220;-63
2023/10/17 13:22:24;;;;;;;14.27;13.77;;;15.40;99.90;;;;;;4999379;28;20687;-62
2023/10/17 13:24:50;;;;;;;14.10;13.60;;;15.40;99.90;;;;;;4998793;28;20847;-62
2023/10/17 13:27:18;;;;;;;14.40;13.90;;;15.50;99.90;;;;;;5001401;28;20210;-64
2023/10/17 13:29:46;;;;;;;15.07;14.57;;;15.60;99.90;;;;;;5002508;28;20229;-64
2023/10/17 13:32:13;;;;;;;14.52;14.02;;;15.50;99.90;;;;;;4999846;28;20289;-63
2023/10/17 13:34:39;;;;;;;15.02;14.52;;;15.40;99.90;;;;;;4999777;28;20240;-64
2023/10/17 13:37:07;;;;;;;14.43;13.93;;;15.10;99.90;;;;;;4997345;28;20201;-65
2023/10/17 13:39:34;;;;;;;14.05;13.55;;;14.90;99.90;;;;;;5002542;28;20587;-64
2023/10/17 13:42:03;;;;;;;14.13;13.63;;;14.80;99.90;;;;;;5004984;28;20205;-64
2023/10/17 13:44:31;;;;;;;13.40;12.93;;;14.80;99.90;;;;;;5017727;28;20213;-65
2023/10/17 13:46:58;;;;;;;13.17;12.77;;;14.70;99.90;;;;;;5004594;28;20226;-67
2023/10/17 13:49:26;;;;;;;13.85;13.35;;;14.70;99.90;;;;;;4997151;28;20317;-64
2023/10/17 13:51:54;;;;;;;13.07;12.67;;;14.80;99.90;;;;;;5003001;28;20204;-62
2023/10/17 13:54:20;;;;;;;13.10;12.65;;;14.90;99.90;;;;;;4998964;28;20244;-64
2023/10/17 13:56:47;;;;;;;13.17;12.73;;;14.90;99.90;;;;;;4999177;28;20203;-63
2023/10/17 13:59:14;;;;;;;12.97;12.47;;;14.80;99.90;;;;;;4997641;28;20317;-64
2023/10/17 14:01:41;;;;;;;13.45;12.95;;;14.90;99.90;;;;;;5007007;28;20217;-65
2023/10/17 14:04:09;;;;;;;13.77;13.27;;;14.90;99.90;;;;;;5010950;28;20229;-65
2023/10/17 14:06:38;;;;;;;13.35;12.93;;;15.00;99.90;;;;;;5010689;28;20225;-65
2023/10/17 14:09:14;;;;;;;13.68;13.18;;;15.10;99.90;;;;;;5002554;28;20226;-65
2023/10/17 14:11:42;;;;;;;13.65;13.15;;;15.20;99.90;;;;;;5002531;28;20205;-64
2023/10/17 14:14:10;;;;;;;14.70;14.20;;;15.20;99.90;;;;;;5002688;28;20206;-65
2023/10/17 14:16:40;;;;;;;16.00;15.40;;;15.30;99.90;;;;;;5001331;28;20630;-65
2023/10/17 14:19:15;;;;;;;14.45;13.95;;;15.30;99.90;;;;;;5007987;28;20303;-66
2023/10/17 14:21:44;;;;;;;14.25;13.75;;;15.30;99.90;;;;;;4998575;28;20749;-64